Time,TemperatureF,DewpointF,PressureIn,WindDirection,WindDirectionDegrees,WindSpeedMPH,WindSpeedGustMPH,Humidity,HourlyPrecipIn,Conditions,Clouds,dailyrainin,SoftwareType,DateUTC
2013-05-06 00:02:00,72.0,-99.9,29.91,NW,307,5.0,7.0,-999,-99.99,,,-99.99,,2013-05-06 04:02:00,
2013-05-06 00:12:00,72.0,-99.9,29.91,NW,319,5.0,7.0,-999,-99.99,,,-99.99,,2013-05-06 04:12:00,
2013-05-06 00:23:00,71.0,-99.9,29.91,NW,309,6.0,7.0,-999,-99.99,,,-99.99,,2013-05-06 04:23:00,
2013-05-06 00:32:00,71.0,-99.9,29.91,NW,320,8.0,10.0,-999,-99.99,,,-99.99,,2013-05-06 04:32:00,
2013-05-06 00:43:00,71.0,-99.9,29.91,NW,318,11.0,13.0,-999,-99.99,,,-99.99,,2013-05-06 04:43:00,
2013-05-06 00:53:00,71.0,-99.9,29.91,NW,318,10.0,15.0,-999,-99.99,,,-99.99,,2013-05-06 04:53:00,
2013-05-06 01:03:00,70.0,-99.9,29.92,NW,320,10.0,13.0,-999,-99.99,,,-99.99,,2013-05-06 05:03:00,
2013-05-06 01:12:00,70.0,-99.9,29.92,NW,316,10.0,13.0,-999,-99.99,,,-99.99,,2013-05-06 05:12:00,
2013-05-06 01:22:00,70.0,-99.9,29.92,NW,315,9.0,13.0,-999,-99.99,,,-99.99,,2013-05-06 05:22:00,
2013-05-06 01:32:00,70.0,-99.9,29.91,NW,315,9.0,13.0,-999,-99.99,,,-99.99,,2013-05-06 05:32:00,
2013-05-06 01:42:00,69.0,-99.9,29.91,NW,316,8.0,10.0,-999,-99.99,,,-99.99,,2013-05-06 05:42:00,
2013-05-06 01:52:00,69.0,-99.9,29.91,NW,315,9.0,12.0,-999,-99.99,,,-99.99,,2013-05-06 05:52:00,
2013-05-06 02:02:00,69.0,-99.9,29.91,NW,311,6.0,11.0,-999,-99.99,,,-99.99,,2013-05-06 06:02:00,
2013-05-06 02:12:00,68.0,-99.9,29.91,NW,318,6.0,9.0,-999,-99.99,,,-99.99,,2013-05-06 06:12:00,
2013-05-06 02:22:00,68.0,-99.9,29.91,NW,319,8.0,10.0,-999,-99.99,,,-99.99,,2013-05-06 06:22:00,
2013-05-06 02:32:00,68.0,-99.9,29.91,NW,314,7.0,10.0,-999,-99.99,,,-99.99,,2013-05-06 06:32:00,
2013-05-06 02:42:00,68.0,-99.9,29.90,NW,304,6.0,10.0,-999,-99.99,,,-99.99,,2013-05-06 06:42:00,
2013-05-06 02:52:00,67.0,-99.9,29.90,NW,305,7.0,8.0,-999,-99.99,,,-99.99,,2013-05-06 06:52:00,
2013-05-06 03:01:00,67.0,-99.9,29.90,NW,305,7.0,9.0,-999,-99.99,,,-99.99,,2013-05-06 07:01:00,
2013-05-06 03:11:00,67.0,-99.9,29.90,NW,307,6.0,8.0,-999,-99.99,,,-99.99,,2013-05-06 07:11:00,
2013-05-06 03:22:00,67.0,-99.9,29.90,NW,308,7.0,9.0,-999,-99.99,,,-99.99,,2013-05-06 07:22:00,
2013-05-06 03:32:00,67.0,-99.9,29.90,NW,312,6.0,10.0,-999,-99.99,,,-99.99,,2013-05-06 07:32:00,
2013-05-06 03:42:00,66.0,-99.9,29.90,WNW,303,7.0,10.0,-999,-99.99,,,-99.99,,2013-05-06 07:42:00,
2013-05-06 03:52:00,66.0,-99.9,29.90,NW,307,7.0,8.0,-999,-99.99,,,-99.99,,2013-05-06 07:52:00,
2013-05-06 04:02:00,66.0,-99.9,29.90,WNW,299,5.0,8.0,-999,-99.99,,,-99.99,,2013-05-06 08:02:00,
2013-05-06 04:12:00,65.0,-99.9,29.91,WNW,297,6.0,9.0,-999,-99.99,,,-99.99,,2013-05-06 08:12:00,
2013-05-06 04:22:00,65.0,-99.9,29.90,NW,306,6.0,7.0,-999,-99.99,,,-99.99,,2013-05-06 08:22:00,
2013-05-06 04:32:00,65.0,-99.9,29.91,WNW,300,6.0,9.0,-999,-99.99,,,-99.99,,2013-05-06 08:32:00,
2013-05-06 04:42:00,65.0,-99.9,29.91,WNW,303,8.0,9.0,-999,-99.99,,,-99.99,,2013-05-06 08:42:00,
2013-05-06 04:52:00,65.0,-99.9,29.91,NW,305,8.0,10.0,-999,-99.99,,,-99.99,,2013-05-06 08:52:00,
2013-05-06 05:02:00,65.0,-99.9,29.91,NW,306,7.0,8.0,-999,-99.99,,,-99.99,,2013-05-06 09:02:00,
2013-05-06 05:11:00,64.0,-99.9,29.92,WNW,298,6.0,9.0,-999,-99.99,,,-99.99,,2013-05-06 09:11:00,
2013-05-06 05:22:00,64.0,-99.9,29.92,NW,309,6.0,9.0,-999,-99.99,,,-99.99,,2013-05-06 09:22:00,
2013-05-06 05:33:00,64.0,-99.9,29.92,NW,304,6.0,7.0,-999,-99.99,,,-99.99,,2013-05-06 09:33:00,
2013-05-06 05:43:00,64.0,-99.9,29.93,WNW,296,5.0,6.0,-999,-99.99,,,-99.99,,2013-05-06 09:43:00,
2013-05-06 05:53:00,64.0,-99.9,29.93,WNW,296,5.0,7.0,-999,-99.99,,,-99.99,,2013-05-06 09:53:00,
2013-05-06 06:03:00,64.0,-99.9,29.93,WNW,302,6.0,9.0,-999,-99.99,,,-99.99,,2013-05-06 10:03:00,
2013-05-06 06:12:00,64.0,-99.9,29.93,WNW,297,6.0,9.0,-999,-99.99,,,-99.99,,2013-05-06 10:12:00,
2013-05-06 06:22:00,64.0,-99.9,29.93,WNW,293,6.0,9.0,-999,-99.99,,,-99.99,,2013-05-06 10:22:00,
2013-05-06 06:33:00,64.0,-99.9,29.94,WNW,300,6.0,8.0,-999,-99.99,,,-99.99,,2013-05-06 10:33:00,
2013-05-06 06:42:00,64.0,-99.9,29.94,WNW,297,6.0,7.0,-999,-99.99,,,-99.99,,2013-05-06 10:42:00,
2013-05-06 06:52:00,64.0,-99.9,29.94,WNW,299,6.0,8.0,-999,-99.99,,,-99.99,,2013-05-06 10:52:00,
2013-05-06 07:02:00,64.0,-99.9,29.95,WNW,295,6.0,8.0,-999,-99.99,,,-99.99,,2013-05-06 11:02:00,
2013-05-06 07:12:00,64.0,-99.9,29.96,WNW,291,7.0,8.0,-999,-99.99,,,-99.99,,2013-05-06 11:12:00,
2013-05-06 07:22:00,64.0,-99.9,29.96,WNW,288,6.0,8.0,-999,-99.99,,,-99.99,,2013-05-06 11:22:00,
2013-05-06 07:32:00,64.0,-99.9,29.96,WNW,291,7.0,9.0,-999,-99.99,,,-99.99,,2013-05-06 11:32:00,
2013-05-06 07:42:00,64.0,-99.9,29.96,WNW,294,6.0,9.0,-999,-99.99,,,-99.99,,2013-05-06 11:42:00,
2013-05-06 07:52:00,64.0,-99.9,29.97,WNW,294,7.0,8.0,-999,-99.99,,,-99.99,,2013-05-06 11:52:00,
2013-05-06 08:02:00,65.0,-99.9,29.97,WNW,294,6.0,9.0,-999,-99.99,,,-99.99,,2013-05-06 12:02:00,
2013-05-06 08:12:00,66.0,-99.9,29.98,WNW,284,4.0,8.0,-999,-99.99,,,-99.99,,2013-05-06 12:12:00,
2013-05-06 08:22:00,67.0,-99.9,29.98,WNW,283,5.0,9.0,-999,-99.99,,,-99.99,,2013-05-06 12:22:00,
2013-05-06 08:32:00,68.0,-99.9,29.98,West,279,5.0,7.0,-999,-99.99,,,-99.99,,2013-05-06 12:32:00,
2013-05-06 08:42:00,68.0,-99.9,29.98,West,272,6.0,9.0,-999,-99.99,,,-99.99,,2013-05-06 12:42:00,
2013-05-06 08:52:00,68.0,-99.9,29.98,WNW,282,6.0,9.0,-999,-99.99,,,-99.99,,2013-05-06 12:52:00,
2013-05-06 09:02:00,69.0,-99.9,29.99,West,274,4.0,9.0,-999,-99.99,,,-99.99,,2013-05-06 13:02:00,
2013-05-06 09:11:00,70.0,-99.9,29.99,West,271,4.0,8.0,-999,-99.99,,,-99.99,,2013-05-06 13:11:00,
2013-05-06 09:22:00,70.0,-99.9,29.99,West,263,6.0,9.0,-999,-99.99,,,-99.99,,2013-05-06 13:22:00,
2013-05-06 09:32:00,71.0,-99.9,29.99,West,276,7.0,12.0,-999,-99.99,,,-99.99,,2013-05-06 13:32:00,
2013-05-06 09:42:00,72.0,-99.9,29.99,West,275,5.0,9.0,-999,-99.99,,,-99.99,,2013-05-06 13:42:00,
2013-05-06 09:52:00,71.0,-99.9,29.99,WNW,294,7.0,10.0,-999,-99.99,,,-99.99,,2013-05-06 13:52:00,
2013-05-06 10:02:00,72.0,-99.9,29.99,WSW,255,6.0,9.0,-999,-99.99,,,-99.99,,2013-05-06 14:02:00,
2013-05-06 10:11:00,73.0,-99.9,29.99,WNW,288,4.0,8.0,-999,-99.99,,,-99.99,,2013-05-06 14:11:00,
2013-05-06 10:21:00,73.0,-99.9,29.99,West,270,6.0,9.0,-999,-99.99,,,-99.99,,2013-05-06 14:21:00,
2013-05-06 10:32:00,73.0,-99.9,29.99,West,272,6.0,9.0,-999,-99.99,,,-99.99,,2013-05-06 14:32:00,
2013-05-06 10:42:00,73.0,-99.9,29.99,West,274,6.0,10.0,-999,-99.99,,,-99.99,,2013-05-06 14:42:00,
2013-05-06 10:52:00,73.0,-99.9,29.99,WNW,292,6.0,8.0,-999,-99.99,,,-99.99,,2013-05-06 14:52:00,
2013-05-06 11:01:00,74.0,-99.9,29.99,West,263,3.0,9.0,-999,-99.99,,,-99.99,,2013-05-06 15:01:00,
2013-05-06 11:11:00,74.0,-99.9,29.99,WNW,293,6.0,10.0,-999,-99.99,,,-99.99,,2013-05-06 15:11:00,
2013-05-06 11:22:00,74.0,-99.9,29.99,WNW,300,4.0,9.0,-999,-99.99,,,-99.99,,2013-05-06 15:22:00,
2013-05-06 11:33:00,74.0,-99.9,29.98,WSW,250,7.0,10.0,-999,-99.99,,,-99.99,,2013-05-06 15:33:00,
2013-05-06 11:43:00,75.0,-99.9,29.98,WSW,247,6.0,9.0,-999,-99.99,,,-99.99,,2013-05-06 15:43:00,
2013-05-06 11:53:00,75.0,-99.9,29.98,WSW,253,4.0,9.0,-999,-99.99,,,-99.99,,2013-05-06 15:53:00,
2013-05-06 12:03:00,76.0,-99.9,29.98,SW,225,1.0,3.0,-999,-99.99,,,-99.99,,2013-05-06 16:03:00,
2013-05-06 12:13:00,76.0,-99.9,29.98,WSW,252,7.0,9.0,-999,-99.99,,,-99.99,,2013-05-06 16:13:00,
2013-05-06 12:23:00,77.0,-99.9,29.98,WSW,255,6.0,8.0,-999,-99.99,,,-99.99,,2013-05-06 16:23:00,
2013-05-06 12:33:00,76.0,-99.9,29.98,South,189,5.0,9.0,-999,-99.99,,,-99.99,,2013-05-06 16:33:00,
2013-05-06 12:42:00,77.0,-99.9,29.98,SW,235,3.0,9.0,-999,-99.99,,,-99.99,,2013-05-06 16:42:00,
2013-05-06 12:52:00,77.0,-99.9,29.98,WSW,237,5.0,8.0,-999,-99.99,,,-99.99,,2013-05-06 16:52:00,
2013-05-06 13:03:00,75.0,-99.9,29.97,SE,135,4.0,5.0,-999,-99.99,,,-99.99,,2013-05-06 17:03:00,
2013-05-06 13:12:00,75.0,-99.9,29.97,SE,143,6.0,8.0,-999,-99.99,,,-99.99,,2013-05-06 17:12:00,
2013-05-06 13:23:00,75.0,-99.9,29.97,South,189,4.0,8.0,-999,-99.99,,,-99.99,,2013-05-06 17:23:00,
2013-05-06 13:32:00,75.0,-99.9,29.97,SSE,149,7.0,10.0,-999,-99.99,,,-99.99,,2013-05-06 17:32:00,
2013-05-06 13:42:00,74.0,-99.9,29.97,SE,135,9.0,11.0,-999,-99.99,,,-99.99,,2013-05-06 17:42:00,
2013-05-06 13:52:00,75.0,-99.9,29.96,SE,145,8.0,10.0,-999,-99.99,,,-99.99,,2013-05-06 17:52:00,
2013-05-06 14:02:00,75.0,-99.9,29.96,SE,134,7.0,10.0,-999,-99.99,,,-99.99,,2013-05-06 18:02:00,
2013-05-06 14:12:00,75.0,-99.9,29.96,ESE,120,10.0,11.0,-999,-99.99,,,-99.99,,2013-05-06 18:12:00,
2013-05-06 14:22:00,75.0,-99.9,29.96,SE,138,11.0,13.0,-999,-99.99,,,-99.99,,2013-05-06 18:22:00,
2013-05-06 14:32:00,75.0,-99.9,29.95,SE,125,11.0,15.0,-999,-99.99,,,-99.99,,2013-05-06 18:32:00,
2013-05-06 14:43:00,75.0,-99.9,29.94,ESE,120,11.0,14.0,-999,-99.99,,,-99.99,,2013-05-06 18:43:00,
2013-05-06 14:52:00,75.0,-99.9,29.94,ESE,123,10.0,16.0,-999,-99.99,,,-99.99,,2013-05-06 18:52:00,
2013-05-06 15:01:00,75.0,-99.9,29.94,SE,132,12.0,14.0,-999,-99.99,,,-99.99,,2013-05-06 19:01:00,
2013-05-06 15:11:00,75.0,-99.9,29.93,SE,133,13.0,15.0,-999,-99.99,,,-99.99,,2013-05-06 19:11:00,
2013-05-06 15:22:00,76.0,-99.9,29.93,ESE,115,14.0,15.0,-999,-99.99,,,-99.99,,2013-05-06 19:22:00,
2013-05-06 15:32:00,76.0,-99.9,29.93,SE,124,10.0,14.0,-999,-99.99,,,-99.99,,2013-05-06 19:32:00,
2013-05-06 15:42:00,76.0,-99.9,29.93,SE,124,12.0,14.0,-999,-99.99,,,-99.99,,2013-05-06 19:42:00,
2013-05-06 15:52:00,76.0,-99.9,29.93,SE,126,11.0,14.0,-999,-99.99,,,-99.99,,2013-05-06 19:52:00,
2013-05-06 16:02:00,76.0,-99.9,29.93,SE,128,11.0,14.0,-999,-99.99,,,-99.99,,2013-05-06 20:02:00,
2013-05-06 16:11:00,76.0,-99.9,29.93,SE,137,11.0,14.0,-999,-99.99,,,-99.99,,2013-05-06 20:11:00,
2013-05-06 16:22:00,76.0,-99.9,29.92,SE,136,12.0,14.0,-999,-99.99,,,-99.99,,2013-05-06 20:22:00,
2013-05-06 16:32:00,76.0,-99.9,29.92,SE,129,14.0,16.0,-999,-99.99,,,-99.99,,2013-05-06 20:32:00,
2013-05-06 16:42:00,76.0,-99.9,29.92,SE,145,13.0,16.0,-999,-99.99,,,-99.99,,2013-05-06 20:42:00,
2013-05-06 16:52:00,76.0,-99.9,29.91,SE,132,14.0,16.0,-999,-99.99,,,-99.99,,2013-05-06 20:52:00,
2013-05-06 17:01:00,76.0,-99.9,29.91,SSE,149,13.0,15.0,-999,-99.99,,,-99.99,,2013-05-06 21:01:00,
2013-05-06 17:11:00,76.0,-99.9,29.91,SSE,151,12.0,14.0,-999,-99.99,,,-99.99,,2013-05-06 21:11:00,
2013-05-06 17:22:00,76.0,-99.9,29.91,SSE,154,11.0,13.0,-999,-99.99,,,-99.99,,2013-05-06 21:22:00,
2013-05-06 17:33:00,76.0,-99.9,29.91,SSE,153,12.0,15.0,-999,-99.99,,,-99.99,,2013-05-06 21:33:00,
2013-05-06 17:43:00,76.0,-99.9,29.92,SSE,162,11.0,13.0,-999,-99.99,,,-99.99,,2013-05-06 21:43:00,
2013-05-06 17:53:00,76.0,-99.9,29.92,SSE,163,11.0,14.0,-999,-99.99,,,-99.99,,2013-05-06 21:53:00,
2013-05-06 18:03:00,76.0,-99.9,29.91,SSE,157,11.0,13.0,-999,-99.99,,,-99.99,,2013-05-06 22:03:00,
2013-05-06 18:12:00,76.0,-99.9,29.91,SSE,155,11.0,14.0,-999,-99.99,,,-99.99,,2013-05-06 22:12:00,
2013-05-06 18:22:00,76.0,-99.9,29.91,SSE,163,11.0,15.0,-999,-99.99,,,-99.99,,2013-05-06 22:22:00,
2013-05-06 18:33:00,76.0,-99.9,29.91,SSE,163,11.0,12.0,-999,-99.99,,,-99.99,,2013-05-06 22:33:00,
2013-05-06 18:45:00,76.0,-99.9,29.91,SSE,161,12.0,15.0,-999,-99.99,,,-99.99,,2013-05-06 22:45:00,
2013-05-06 18:53:00,76.0,-99.9,29.91,South,172,11.0,15.0,-999,-99.99,,,-99.99,,2013-05-06 22:53:00,
2013-05-06 19:03:00,76.0,-99.9,29.91,SSE,161,13.0,14.0,-999,-99.99,,,-99.99,,2013-05-06 23:03:00,
2013-05-06 19:12:00,76.0,-99.9,29.92,SSE,164,12.0,14.0,-999,-99.99,,,-99.99,,2013-05-06 23:12:00,
2013-05-06 19:22:00,76.0,-99.9,29.91,SSE,167,13.0,14.0,-999,-99.99,,,-99.99,,2013-05-06 23:22:00,
2013-05-06 19:32:00,76.0,-99.9,29.92,South,174,12.0,16.0,-999,-99.99,,,-99.99,,2013-05-06 23:32:00,
2013-05-06 19:42:00,76.0,-99.9,29.92,SSW,193,12.0,17.0,-999,-99.99,,,-99.99,,2013-05-06 23:42:00,
2013-05-06 19:52:00,75.0,-99.9,29.92,South,182,18.0,19.0,-999,-99.99,,,-99.99,,2013-05-06 23:52:00,
2013-05-06 20:01:00,75.0,-99.9,29.93,South,177,14.0,17.0,-999,-99.99,,,-99.99,,2013-05-07 00:01:00,
2013-05-06 20:12:00,75.0,-99.9,29.93,South,178,11.0,13.0,-999,-99.99,,,-99.99,,2013-05-07 00:12:00,
2013-05-06 20:22:00,76.0,-99.9,29.93,South,172,10.0,14.0,-999,-99.99,,,-99.99,,2013-05-07 00:22:00,
2013-05-06 20:32:00,76.0,-99.9,29.94,South,175,12.0,14.0,-999,-99.99,,,-99.99,,2013-05-07 00:32:00,
2013-05-06 20:42:00,76.0,-99.9,29.94,SSW,196,9.0,11.0,-999,-99.99,,,-99.99,,2013-05-07 00:42:00,
2013-05-06 20:52:00,76.0,-99.9,29.94,SSW,196,8.0,11.0,-999,-99.99,,,-99.99,,2013-05-07 00:52:00,
2013-05-06 21:01:00,76.0,-99.9,29.94,South,189,6.0,11.0,-999,-99.99,,,-99.99,,2013-05-07 01:01:00,
2013-05-06 21:11:00,76.0,-99.9,29.95,SW,219,7.0,11.0,-999,-99.99,,,-99.99,,2013-05-07 01:11:00,
2013-05-06 21:21:00,76.0,-99.9,29.95,SW,219,6.0,10.0,-999,-99.99,,,-99.99,,2013-05-07 01:21:00,
2013-05-06 21:32:00,76.0,-99.9,29.95,SW,225,4.0,7.0,-999,-99.99,,,-99.99,,2013-05-07 01:32:00,
2013-05-06 21:42:00,76.0,-99.9,29.96,SW,232,5.0,6.0,-999,-99.99,,,-99.99,,2013-05-07 01:42:00,
2013-05-06 21:53:00,76.0,-99.9,29.96,WSW,241,4.0,7.0,-999,-99.99,,,-99.99,,2013-05-07 01:53:00,
2013-05-06 22:02:00,76.0,-99.9,29.96,SW,228,4.0,5.0,-999,-99.99,,,-99.99,,2013-05-07 02:02:00,
2013-05-06 22:11:00,76.0,-99.9,29.96,West,280,4.0,5.0,-999,-99.99,,,-99.99,,2013-05-07 02:11:00,
2013-05-06 22:22:00,76.0,-99.9,29.96,West,278,3.0,4.0,-999,-99.99,,,-99.99,,2013-05-07 02:22:00,
2013-05-06 22:32:00,76.0,-99.9,29.96,NW,316,4.0,6.0,-999,-99.99,,,-99.99,,2013-05-07 02:32:00,
2013-05-06 22:42:00,75.0,-99.9,29.97,NW,311,8.0,10.0,-999,-99.99,,,-99.99,,2013-05-07 02:42:00,
2013-05-06 22:52:00,75.0,-99.9,29.97,NW,307,7.0,9.0,-999,-99.99,,,-99.99,,2013-05-07 02:52:00,
2013-05-06 23:02:00,75.0,-99.9,29.97,NW,307,9.0,11.0,-999,-99.99,,,-99.99,,2013-05-07 03:02:00,
2013-05-06 23:12:00,75.0,-99.9,29.97,WNW,296,4.0,7.0,-999,-99.99,,,-99.99,,2013-05-07 03:12:00,
2013-05-06 23:22:00,74.0,-99.9,29.97,WNW,291,6.0,7.0,-999,-99.99,,,-99.99,,2013-05-07 03:22:00,
2013-05-06 23:33:00,74.0,-99.9,29.97,WNW,298,6.0,7.0,-999,-99.99,,,-99.99,,2013-05-07 03:33:00,
2013-05-06 23:43:00,74.0,-99.9,29.98,WNW,293,4.0,6.0,-999,-99.99,,,-99.99,,2013-05-07 03:43:00,
2013-05-06 23:53:00,74.0,-99.9,29.98,WNW,297,4.0,5.0,-999,-99.99,,,-99.99,,2013-05-07 03:53:00,